createdAt,value
2019-05-10T00:00:16.096Z,33.55
2019-05-10T00:03:04.716Z,29.95
2019-05-10T00:05:53.017Z,31.97
2019-05-10T00:08:41.714Z,34.20
2019-05-10T00:11:19.886Z,28.25
2019-05-10T00:14:08.441Z,27.87
2019-05-10T00:16:39.281Z,36.88
2019-05-10T00:19:09.936Z,36.55
2019-05-10T00:21:40.738Z,28.25
2019-05-10T00:24:12.105Z,34.75
2019-05-10T00:26:42.802Z,34.90
2019-05-10T00:29:13.614Z,33.78
2019-05-10T00:31:44.290Z,31.17
2019-05-10T00:34:15.052Z,30.00
2019-05-10T00:36:47.814Z,34.83
2019-05-10T00:39:19.564Z,32.10
2019-05-10T00:41:50.452Z,32.17
2019-05-10T00:44:21.118Z,29.98
2019-05-10T00:46:52.153Z,33.38
2019-05-10T00:49:23.035Z,30.70
2019-05-10T00:51:53.782Z,35.10
2019-05-10T00:54:24.445Z,27.82
2019-05-10T00:56:55.233Z,34.70
2019-05-10T00:59:25.888Z,34.30
2019-05-10T01:01:58.009Z,31.73
2019-05-10T01:04:28.628Z,31.65
2019-05-10T01:06:59.398Z,29.32
2019-05-10T01:09:30.170Z,28.40
2019-05-10T01:12:01.010Z,30.80
2019-05-10T01:14:31.553Z,26.02
2019-05-10T01:17:02.328Z,25.05
2019-05-10T01:19:33.083Z,29.95
2019-05-10T01:22:03.838Z,34.33
2019-05-10T01:24:35.100Z,32.48
2019-05-10T01:27:07.256Z,32.38
2019-05-10T01:29:37.950Z,29.23
2019-05-10T01:32:08.677Z,33.33
2019-05-10T01:34:39.457Z,25.25
2019-05-10T01:37:10.135Z,26.48
2019-05-10T01:39:40.863Z,30.43
2019-05-10T01:42:11.716Z,36.90
2019-05-10T01:44:42.404Z,37.03
2019-05-10T01:47:12.924Z,32.83
2019-05-10T01:49:46.869Z,32.08
2019-05-10T01:52:20.735Z,27.17
2019-05-10T01:54:52.322Z,32.20
2019-05-10T01:57:22.957Z,32.85
2019-05-10T01:59:54.233Z,32.70
2019-05-10T02:02:37.472Z,32.42
2019-05-10T02:05:08.295Z,27.50
2019-05-10T02:07:41.345Z,31.55
2019-05-10T02:10:12.158Z,34.53
2019-05-10T02:12:44.728Z,31.42
2019-05-10T02:15:15.663Z,31.12
2019-05-10T02:17:46.229Z,23.65
2019-05-10T02:20:19.835Z,24.65
2019-05-10T02:22:50.592Z,31.65
2019-05-10T02:25:21.235Z,25.60
2019-05-10T02:27:51.983Z,31.05
2019-05-10T02:30:22.775Z,31.37
2019-05-10T02:32:53.432Z,31.52
2019-05-10T02:35:24.048Z,35.63
2019-05-10T02:37:56.336Z,35.40
2019-05-10T02:40:27.130Z,28.40
2019-05-10T02:42:57.980Z,29.40
2019-05-10T02:45:28.728Z,35.80
2019-05-10T02:47:59.371Z,29.35
2019-05-10T02:50:31.145Z,33.95
2019-05-10T02:53:03.142Z,29.42
2019-05-10T02:55:36.640Z,24.40
2019-05-10T02:58:07.586Z,30.82
2019-05-10T03:00:40.668Z,26.93
2019-05-10T03:03:12.727Z,27.07
2019-05-10T03:05:48.497Z,36.40
2019-05-10T03:08:18.314Z,31.05
2019-05-10T03:10:57.497Z,27.77
2019-05-10T03:13:32.801Z,28.90
2019-05-10T03:16:06.601Z,27.40
2019-05-10T03:18:37.571Z,34.33
2019-05-10T03:21:10.814Z,30.08
2019-05-10T03:23:41.748Z,34.38
2019-05-10T03:26:12.561Z,29.70
2019-05-10T03:28:43.267Z,26.60
2019-05-10T03:31:14.233Z,33.38
2019-05-10T03:33:45.050Z,30.23
2019-05-10T03:36:16.720Z,29.67
2019-05-10T03:38:47.408Z,31.02
2019-05-10T03:41:18.124Z,29.10
2019-05-10T03:43:49.651Z,27.75
2019-05-10T03:46:20.519Z,30.95
2019-05-10T03:49:02.232Z,30.45
2019-05-10T03:51:35.295Z,29.25
2019-05-10T03:54:07.259Z,31.42
2019-05-10T03:56:37.849Z,35.60
2019-05-10T03:59:08.649Z,30.12
2019-05-10T04:01:39.397Z,35.20
2019-05-10T04:04:10.190Z,26.30
2019-05-10T04:06:40.867Z,33.88
2019-05-10T04:09:13.175Z,30.00
2019-05-10T04:11:43.881Z,26.25
2019-05-10T04:14:14.606Z,31.48
2019-05-10T04:16:47.979Z,30.02
2019-05-10T04:19:21.237Z,29.02
2019-05-10T04:21:51.998Z,26.27
2019-05-10T04:24:23.658Z,28.32
2019-05-10T04:26:54.248Z,31.20
2019-05-10T04:29:25.172Z,32.30
2019-05-10T04:31:55.871Z,31.48
2019-05-10T04:34:32.504Z,33.48
2019-05-10T04:37:03.357Z,30.25
2019-05-10T04:39:35.781Z,33.10
2019-05-10T04:42:06.559Z,27.87
2019-05-10T04:44:37.441Z,35.25
2019-05-10T04:47:10.096Z,32.50
2019-05-10T04:49:40.232Z,28.02
2019-05-10T04:52:10.884Z,37.35
2019-05-10T04:54:43.611Z,35.00
2019-05-10T04:57:23.043Z,32.38
2019-05-10T04:59:53.795Z,43.13
2019-05-10T05:02:24.436Z,32.58
2019-05-10T05:04:55.294Z,32.40
2019-05-10T05:07:26.145Z,34.15
2019-05-10T05:09:57.191Z,40.83
2019-05-10T05:12:28.015Z,33.40
2019-05-10T05:14:59.870Z,36.20
2019-05-10T05:17:30.701Z,36.33
2019-05-10T05:20:01.497Z,32.75
2019-05-10T05:22:32.328Z,30.95
2019-05-10T05:25:04.984Z,31.40
2019-05-10T05:27:35.801Z,32.40
2019-05-10T05:30:10.730Z,32.98
2019-05-10T05:32:44.666Z,31.10
2019-05-10T05:35:15.487Z,34.30
2019-05-10T05:37:46.390Z,30.20
2019-05-10T05:40:17.279Z,28.40
2019-05-10T05:42:48.140Z,28.27
2019-05-10T05:45:18.996Z,32.63
2019-05-10T05:47:49.693Z,31.40
2019-05-10T05:50:21.868Z,39.15
2019-05-10T05:52:54.622Z,34.18
2019-05-10T05:55:30.733Z,42.45
2019-05-10T05:58:26.830Z,31.23
2019-05-10T06:00:50.806Z,26.87
2019-05-10T06:03:27.545Z,46.35
2019-05-10T06:05:53.512Z,32.35
2019-05-10T06:08:25.106Z,28.40
2019-05-10T06:10:59.723Z,28.25
2019-05-10T06:13:30.151Z,26.70
2019-05-10T06:16:05.823Z,36.75
2019-05-10T06:18:33.017Z,35.50
2019-05-10T06:21:03.768Z,39.73
2019-05-10T06:23:35.134Z,36.65
2019-05-10T06:26:06.645Z,36.33
2019-05-10T06:28:57.651Z,43.17
2019-05-10T06:31:11.819Z,32.55
2019-05-10T06:33:46.579Z,40.12
2019-05-10T06:36:17.017Z,31.52
2019-05-10T06:38:47.586Z,32.48
2019-05-10T06:41:19.234Z,37.93
2019-05-10T06:43:53.171Z,29.15
2019-05-10T06:46:29.304Z,46.70
2019-05-10T06:49:07.315Z,58.28
2019-05-10T06:51:29.076Z,57.90
2019-05-10T06:53:59.828Z,49.20
2019-05-10T06:56:30.986Z,37.20
2019-05-10T06:59:13.077Z,46.40
2019-05-10T07:01:38.139Z,33.05
2019-05-10T07:04:08.239Z,35.83
2019-05-10T07:06:38.648Z,38.38
2019-05-10T07:09:09.372Z,36.35
2019-05-10T07:11:40.137Z,35.33
2019-05-10T07:14:10.826Z,35.03
2019-05-10T07:16:41.508Z,39.33
2019-05-10T07:19:13.090Z,38.23
2019-05-10T07:21:45.068Z,34.40
2019-05-10T07:24:18.179Z,39.83
2019-05-10T07:26:48.286Z,39.20
2019-05-10T07:29:29.676Z,40.60
2019-05-10T07:31:53.308Z,32.55
2019-05-10T07:34:23.866Z,37.00
2019-05-10T07:36:54.499Z,43.35
2019-05-10T07:39:25.380Z,33.45
2019-05-10T07:42:00.485Z,34.15
2019-05-10T07:44:30.553Z,39.42
2019-05-10T07:47:01.193Z,36.23
2019-05-10T07:49:33.996Z,34.08
2019-05-10T07:52:06.554Z,33.48
2019-05-10T07:54:44.607Z,30.82
2019-05-10T07:57:09.427Z,30.92
2019-05-10T07:59:49.989Z,29.00
2019-05-10T08:02:12.814Z,29.77
2019-05-10T08:04:43.955Z,26.62
2019-05-10T08:07:14.358Z,26.42
2019-05-10T08:09:46.180Z,27.07
2019-05-10T08:12:19.289Z,30.55
2019-05-10T08:14:52.110Z,28.23
2019-05-10T08:17:20.959Z,24.90
2019-05-10T08:19:53.755Z,29.72
2019-05-10T08:22:27.260Z,32.28
2019-05-10T08:25:17.940Z,31.02
2019-05-10T08:27:51.180Z,31.55
2019-05-10T08:30:28.954Z,30.97
2019-05-10T08:32:55.451Z,32.95
2019-05-10T08:35:26.214Z,30.72
2019-05-10T08:37:58.004Z,25.25
2019-05-10T08:40:35.117Z,28.40
2019-05-10T08:43:06.676Z,29.23
2019-05-10T08:45:32.886Z,28.85
2019-05-10T08:48:06.984Z,28.70
2019-05-10T08:50:49.270Z,36.98
2019-05-10T08:53:11.009Z,32.25
2019-05-10T08:55:39.905Z,30.85
2019-05-10T08:58:12.407Z,28.55
2019-05-10T09:00:54.169Z,29.02
2019-05-10T09:03:18.619Z,27.73
2019-05-10T09:05:48.541Z,29.42
2019-05-10T09:08:20.179Z,30.75
2019-05-10T09:10:52.999Z,25.62
2019-05-10T09:13:28.575Z,30.57
2019-05-10T09:15:57.048Z,20.40
2019-05-10T09:18:28.000Z,27.30
2019-05-10T09:21:00.322Z,27.17
2019-05-10T09:23:32.671Z,30.52
2019-05-10T09:26:10.682Z,30.80
2019-05-10T09:28:35.226Z,23.38
2019-05-10T09:31:16.936Z,28.55
2019-05-10T09:33:41.015Z,24.45
2019-05-10T09:36:12.295Z,26.27
2019-05-10T09:38:44.115Z,22.80
2019-05-10T09:41:14.690Z,24.30
2019-05-10T09:43:48.847Z,24.10
2019-05-10T09:46:17.477Z,28.35
2019-05-10T09:48:48.270Z,25.45
2019-05-10T09:51:19.244Z,29.32
2019-05-10T09:53:51.046Z,26.48
2019-05-10T09:56:21.858Z,26.15
2019-05-10T09:58:53.313Z,29.12
2019-05-10T10:01:24.490Z,28.92
2019-05-10T10:03:57.897Z,30.88
2019-05-10T10:06:29.473Z,28.67
2019-05-10T10:09:00.943Z,24.67
2019-05-10T10:11:33.325Z,26.25
2019-05-10T10:14:04.178Z,27.13
2019-05-10T10:16:35.241Z,26.77
2019-05-10T10:19:07.201Z,23.10
2019-05-10T10:21:38.936Z,26.12
2019-05-10T10:24:15.782Z,22.15
2019-05-10T10:26:42.150Z,24.15
2019-05-10T10:29:12.797Z,32.17
2019-05-10T10:31:51.545Z,18.95
2019-05-10T10:34:17.348Z,17.92
2019-05-10T10:36:47.898Z,22.67
2019-05-10T10:39:22.941Z,18.60
2019-05-10T10:41:52.182Z,20.97
2019-05-10T10:44:23.099Z,17.57
2019-05-10T10:46:53.818Z,24.07
2019-05-10T10:49:30.243Z,19.82
2019-05-10T10:51:57.353Z,16.60
2019-05-10T10:54:35.889Z,20.80
2019-05-10T10:57:00.434Z,20.75
2019-05-10T10:59:31.250Z,21.35
2019-05-10T11:02:27.769Z,24.70
2019-05-10T11:04:34.456Z,23.10
2019-05-10T11:07:10.352Z,20.95
2019-05-10T11:09:36.997Z,19.95
2019-05-10T11:12:07.789Z,22.05
2019-05-10T11:14:41.035Z,23.18
2019-05-10T11:17:11.170Z,23.73
2019-05-10T11:19:42.435Z,21.62
2019-05-10T11:22:13.108Z,26.17
2019-05-10T11:24:44.029Z,21.05
2019-05-10T11:27:17.094Z,27.27
2019-05-10T11:29:47.000Z,27.13
2019-05-10T11:32:17.782Z,29.35
2019-05-10T11:34:48.554Z,24.35
2019-05-10T11:37:31.008Z,26.37
2019-05-10T11:39:51.515Z,30.43
2019-05-10T11:42:22.244Z,31.77
2019-05-10T11:44:54.697Z,34.05
2019-05-10T11:47:27.283Z,41.60
2019-05-10T11:50:05.810Z,27.15
2019-05-10T11:52:34.887Z,29.40
2019-05-10T11:55:03.592Z,28.30
2019-05-10T11:57:34.417Z,26.82
2019-05-10T12:00:14.603Z,23.98
2019-05-10T12:02:43.434Z,21.15
2019-05-10T12:07:46.029Z,27.02
2019-05-10T12:10:21.019Z,27.32
2019-05-10T12:13:01.846Z,20.82
2019-05-10T12:17:58.493Z,17.27
2019-05-10T12:20:38.525Z,24.10
2019-05-10T12:22:56.943Z,20.48
2019-05-10T12:25:42.091Z,19.82
2019-05-10T12:26:27.769Z,15.38
2019-05-10T12:26:50.542Z,24.67
2019-05-10T12:28:01.276Z,17.27
2019-05-10T12:30:35.044Z,17.70
2019-05-10T12:33:08.872Z,14.50
2019-05-10T12:35:41.883Z,13.18
2019-05-10T12:38:08.612Z,10.30
2019-05-10T12:40:41.756Z,12.70
2019-05-10T12:43:11.546Z,12.63
2019-05-10T12:45:42.303Z,10.32
2019-05-10T12:48:12.986Z,11.22
2019-05-10T12:50:44.133Z,8.88
2019-05-10T12:53:18.375Z,8.20
2019-05-10T12:55:47.394Z,12.40
2019-05-10T12:58:18.701Z,14.03
2019-05-10T13:00:52.347Z,14.58
2019-05-10T13:03:25.189Z,14.98
2019-05-10T13:05:53.903Z,20.48
2019-05-10T13:08:29.038Z,14.28
2019-05-10T13:11:00.754Z,14.33
2019-05-10T13:13:31.425Z,17.77
2019-05-10T13:16:03.444Z,17.80
2019-05-10T13:18:49.659Z,16.73
2019-05-10T13:21:13.191Z,18.45
2019-05-10T13:23:40.455Z,16.00
2019-05-10T13:26:11.184Z,14.63
2019-05-10T13:28:41.952Z,14.78
2019-05-10T13:31:15.003Z,15.78
2019-05-10T13:33:45.755Z,18.80
2019-05-10T13:36:16.662Z,12.45
2019-05-10T13:38:49.217Z,15.93
2019-05-10T13:41:24.467Z,19.27
2019-05-10T13:43:51.470Z,16.65
2019-05-10T13:46:22.119Z,11.80
2019-05-10T13:48:52.962Z,11.20
2019-05-10T13:51:23.732Z,14.10
2019-05-10T13:54:15.202Z,11.70
2019-05-10T13:56:52.061Z,14.68
2019-05-10T13:59:18.211Z,8.23
2019-05-10T14:01:49.449Z,9.70
2019-05-10T14:04:23.345Z,11.18
2019-05-10T14:06:54.192Z,13.00
2019-05-10T14:09:26.008Z,10.48
2019-05-10T14:11:56.778Z,10.95
2019-05-10T14:14:27.491Z,12.20
2019-05-10T14:16:58.159Z,9.30
2019-05-10T14:19:28.903Z,11.25
2019-05-10T14:21:59.711Z,11.78
2019-05-10T14:24:30.596Z,8.90
2019-05-10T14:27:01.271Z,16.20
2019-05-10T14:29:36.467Z,8.10
2019-05-10T14:32:04.348Z,8.98
2019-05-10T14:34:38.077Z,10.08
2019-05-10T14:37:07.138Z,13.03
2019-05-10T14:39:37.794Z,12.90
2019-05-10T14:42:09.525Z,8.60
2019-05-10T14:44:40.350Z,11.97
2019-05-10T14:47:11.291Z,9.55
2019-05-10T14:49:46.452Z,12.37
2019-05-10T14:52:14.126Z,10.88
2019-05-10T14:54:49.906Z,7.83
2019-05-10T14:57:17.266Z,9.05
2019-05-10T14:59:49.393Z,10.58
2019-05-10T15:02:22.756Z,9.30
2019-05-10T15:04:54.221Z,10.85
2019-05-10T15:07:24.972Z,11.05
2019-05-10T15:10:00.457Z,7.80
2019-05-10T15:12:27.374Z,11.38
2019-05-10T15:14:59.797Z,11.93
2019-05-10T15:17:30.650Z,9.28
2019-05-10T15:20:01.422Z,8.93
2019-05-10T15:22:32.276Z,8.65
2019-05-10T15:25:03.300Z,10.98
2019-05-10T15:27:34.002Z,12.47
2019-05-10T15:30:08.427Z,12.98
2019-05-10T15:32:40.336Z,14.50
2019-05-10T15:35:11.236Z,12.07
2019-05-10T15:37:46.536Z,13.35
2019-05-10T15:40:15.501Z,22.05
2019-05-10T15:42:46.173Z,19.60
2019-05-10T15:45:19.346Z,21.60
2019-05-10T15:47:52.031Z,23.83
2019-05-10T15:50:22.964Z,23.67
2019-05-10T15:52:53.686Z,22.62
2019-05-10T15:57:57.587Z,22.90
2019-05-10T15:59:23.524Z,24.65
2019-05-10T16:00:37.442Z,24.07
2019-05-10T16:03:00.993Z,22.87
2019-05-10T16:05:43.086Z,23.30
2019-05-10T16:08:04.280Z,22.98
2019-05-10T16:10:39.441Z,23.15
2019-05-10T16:13:07.153Z,19.73
2019-05-10T16:15:37.942Z,22.50
2019-05-10T16:18:08.618Z,26.23
2019-05-10T16:20:40.942Z,24.27
2019-05-10T16:23:11.831Z,23.70
2019-05-10T16:25:47.918Z,22.35
2019-05-10T16:28:15.466Z,23.50
2019-05-10T16:30:47.329Z,21.42
2019-05-10T16:33:18.269Z,27.67
2019-05-10T16:35:50.045Z,26.37
2019-05-10T16:38:21.305Z,28.85
2019-05-10T16:40:58.476Z,27.77
2019-05-10T16:43:24.802Z,32.05
2019-05-10T16:45:55.994Z,27.93
2019-05-10T16:48:28.371Z,30.95
2019-05-10T16:51:03.679Z,27.95
2019-05-10T16:53:31.452Z,28.10
2019-05-10T16:56:02.362Z,29.02
2019-05-10T16:58:33.086Z,26.70
2019-05-10T17:01:03.862Z,29.48
2019-05-10T17:03:34.512Z,28.23
2019-05-10T17:06:05.805Z,27.52
2019-05-10T17:08:38.639Z,28.77
2019-05-10T17:11:10.203Z,26.80
2019-05-10T17:13:41.499Z,31.55
2019-05-10T17:16:17.124Z,36.28
2019-05-10T17:18:49.920Z,25.15
2019-05-10T17:21:17.071Z,24.92
2019-05-10T17:23:48.615Z,28.70
2019-05-10T17:26:19.517Z,26.15
2019-05-10T17:28:50.648Z,30.48
2019-05-10T17:31:21.390Z,30.95
2019-05-10T17:33:52.160Z,26.12
2019-05-10T17:36:22.833Z,28.90
2019-05-10T17:38:55.744Z,30.72
2019-05-10T17:41:27.067Z,31.68
2019-05-10T17:43:58.161Z,37.25
2019-05-10T17:46:29.088Z,32.48
2019-05-10T17:48:59.644Z,33.92
2019-05-10T17:51:30.678Z,32.58
2019-05-10T17:54:03.728Z,30.10
2019-05-10T17:56:38.742Z,35.48
2019-05-10T17:59:12.048Z,29.23
2019-05-10T18:01:39.800Z,30.85
2019-05-10T18:04:10.500Z,33.38
2019-05-10T18:06:41.709Z,31.77
2019-05-10T18:09:12.492Z,31.62
2019-05-10T18:11:44.947Z,32.85
2019-05-10T18:14:18.018Z,28.25
2019-05-10T18:16:49.845Z,30.90
2019-05-10T18:19:24.823Z,36.40
2019-05-10T18:21:54.804Z,36.25
2019-05-10T18:24:24.025Z,30.97
2019-05-10T18:26:54.744Z,31.82
2019-05-10T18:29:25.786Z,30.37
2019-05-10T18:31:58.378Z,32.67
2019-05-10T18:34:33.063Z,35.13
2019-05-10T18:37:00.841Z,36.42
2019-05-10T18:39:31.535Z,33.95
2019-05-10T18:42:02.465Z,32.60
2019-05-10T18:44:33.191Z,32.93
2019-05-10T18:47:03.894Z,36.23
2019-05-10T18:49:34.711Z,35.78
2019-05-10T18:52:06.605Z,35.33
2019-05-10T18:54:38.604Z,33.83
2019-05-10T18:57:12.255Z,31.70
2019-05-10T18:59:45.461Z,33.75
2019-05-10T19:02:17.686Z,30.65
2019-05-10T19:04:51.963Z,38.35
2019-05-10T19:07:18.918Z,32.33
2019-05-10T19:09:49.561Z,32.75
2019-05-10T19:12:22.650Z,30.72
2019-05-10T19:14:52.481Z,32.58
2019-05-10T19:17:23.150Z,31.95
2019-05-10T19:19:54.118Z,40.92
2019-05-10T19:22:24.970Z,33.80
2019-05-10T19:24:57.016Z,34.45
2019-05-10T19:27:27.974Z,37.30
2019-05-10T19:29:58.771Z,37.08
2019-05-10T19:32:29.745Z,39.73
2019-05-10T19:35:00.474Z,36.00
2019-05-10T19:37:34.301Z,40.55
2019-05-10T19:40:03.428Z,35.25
2019-05-10T19:42:37.086Z,31.95
2019-05-10T19:45:07.625Z,37.83
2019-05-10T19:47:38.299Z,36.85
2019-05-10T19:50:09.245Z,34.67
2019-05-10T19:52:40.029Z,36.15
2019-05-10T19:55:13.099Z,39.85
2019-05-10T19:57:42.842Z,40.10
2019-05-10T20:00:13.839Z,40.70
2019-05-10T20:02:45.179Z,43.73
2019-05-10T20:05:15.812Z,40.03
2019-05-10T20:07:46.750Z,40.25
2019-05-10T20:10:17.950Z,41.85
2019-05-10T20:12:48.728Z,37.25
2019-05-10T20:15:19.586Z,39.80
2019-05-10T20:17:50.370Z,39.30
2019-05-10T20:20:21.180Z,43.15
2019-05-10T20:22:52.261Z,39.10
2019-05-10T20:25:23.116Z,37.73
2019-05-10T20:27:53.775Z,35.03
2019-05-10T20:30:26.622Z,37.35
2019-05-10T20:32:58.298Z,35.75
2019-05-10T20:35:29.524Z,36.42
2019-05-10T20:38:02.450Z,31.20
2019-05-10T20:40:32.471Z,38.63
2019-05-10T20:43:03.328Z,38.60
2019-05-10T20:45:33.975Z,34.48
2019-05-10T20:48:04.742Z,32.55
2019-05-10T20:50:35.588Z,33.50
2019-05-10T20:53:06.271Z,32.98
2019-05-10T20:55:36.999Z,34.08
2019-05-10T20:58:07.809Z,32.93
2019-05-10T21:00:38.549Z,32.23
2019-05-10T21:03:09.267Z,33.85
2019-05-10T21:05:40.163Z,39.05
2019-05-10T21:08:17.054Z,41.98
2019-05-10T21:10:43.355Z,35.70
2019-05-10T21:13:14.174Z,35.13
2019-05-10T21:15:44.903Z,38.45
2019-05-10T21:18:15.630Z,35.23
2019-05-10T21:20:47.941Z,33.80
2019-05-10T21:23:18.694Z,33.45
2019-05-10T21:25:49.432Z,37.38
2019-05-10T21:28:20.197Z,39.05
2019-05-10T21:30:53.408Z,32.80
2019-05-10T21:33:22.701Z,35.75
2019-05-10T21:35:53.385Z,37.20
2019-05-10T21:38:32.897Z,38.70
2019-05-10T21:40:56.947Z,35.33
2019-05-10T21:43:27.830Z,38.85
2019-05-10T21:45:58.673Z,32.83
2019-05-10T21:48:29.600Z,33.73
2019-05-10T21:51:00.375Z,35.00
2019-05-10T21:53:31.827Z,36.60
2019-05-10T21:56:02.627Z,31.48
2019-05-10T21:58:34.063Z,36.48
2019-05-10T22:01:04.744Z,32.58
2019-05-10T22:03:35.511Z,31.12
2019-05-10T22:06:06.215Z,34.13
2019-05-10T22:08:48.790Z,33.65
2019-05-10T22:11:11.380Z,43.30
2019-05-10T22:13:42.206Z,34.50
2019-05-10T22:16:12.920Z,44.93
2019-05-10T22:18:43.820Z,42.27
2019-05-10T22:21:14.568Z,42.38
2019-05-10T22:23:45.319Z,40.88
2019-05-10T22:26:16.088Z,36.70
2019-05-10T22:28:46.741Z,41.25
2019-05-10T22:31:17.473Z,40.90
2019-05-10T22:33:48.269Z,45.60
2019-05-10T22:36:18.954Z,42.00
2019-05-10T22:39:05.346Z,41.00
2019-05-10T22:41:22.040Z,38.58
2019-05-10T22:43:52.728Z,44.85
2019-05-10T22:46:23.440Z,41.90
2019-05-10T22:48:54.121Z,38.58
2019-05-10T22:51:24.824Z,38.85
2019-05-10T22:53:59.893Z,36.85
2019-05-10T22:56:27.983Z,32.88
2019-05-10T22:58:58.718Z,33.78
2019-05-10T23:01:29.423Z,33.53
2019-05-10T23:04:00.223Z,38.15
2019-05-10T23:06:30.905Z,35.00
2019-05-10T23:09:01.627Z,33.67
2019-05-10T23:11:32.719Z,38.05
2019-05-10T23:14:03.374Z,35.48
2019-05-10T23:16:34.104Z,34.10
2019-05-10T23:19:04.928Z,35.08
2019-05-10T23:21:35.894Z,36.28
2019-05-10T23:24:09.002Z,35.20
2019-05-10T23:26:39.584Z,34.05
2019-05-10T23:29:10.347Z,41.80
2019-05-10T23:31:40.808Z,41.75
2019-05-10T23:34:11.642Z,40.12
2019-05-10T23:36:42.094Z,40.50
2019-05-10T23:39:12.994Z,39.35
2019-05-10T23:41:43.481Z,42.10
2019-05-10T23:44:14.288Z,43.13
2019-05-10T23:46:44.973Z,45.45
2019-05-10T23:49:15.382Z,42.05
2019-05-10T23:51:46.101Z,44.85
2019-05-10T23:54:16.894Z,46.58
2019-05-10T23:56:47.557Z,37.95
2019-05-10T23:59:18.377Z,42.45
